createdAt,value
2024-05-09T00:01:00.291Z,6.90
2024-05-09T00:06:21.077Z,7.10
2024-05-09T00:11:27.809Z,7.50
2024-05-09T00:16:34.787Z,7.00
2024-05-09T00:21:45.448Z,8.40
2024-05-09T00:26:52.133Z,7.90
2024-05-09T00:31:58.900Z,9.80
2024-05-09T00:37:08.538Z,7.00
2024-05-09T00:42:15.730Z,7.10
2024-05-09T00:47:24.274Z,7.10
2024-05-09T00:52:32.333Z,6.60
2024-05-09T00:57:39.736Z,6.80
2024-05-09T01:02:46.891Z,8.40
2024-05-09T01:07:53.977Z,7.40
2024-05-09T01:13:00.819Z,7.50
2024-05-09T01:18:11.519Z,6.90
2024-05-09T01:28:24.730Z,8.10
2024-05-09T01:33:31.514Z,9.60
2024-05-09T01:38:38.951Z,8.00
2024-05-09T01:43:45.645Z,10.70
2024-05-09T01:48:52.572Z,11.70
2024-05-09T01:53:59.254Z,7.60
2024-05-09T01:59:06.660Z,9.80
2024-05-09T02:04:13.752Z,9.30
2024-05-09T02:09:20.796Z,8.30
2024-05-09T02:14:27.582Z,8.00
2024-05-09T02:19:34.582Z,6.30
2024-05-09T02:24:41.380Z,7.00
2024-05-09T02:29:58.473Z,7.00
2024-05-09T02:35:09.154Z,7.30
2024-05-09T02:40:25.156Z,7.40
2024-05-09T02:45:35.806Z,8.60
2024-05-09T02:50:44.039Z,8.10
2024-05-09T02:56:17.786Z,8.10
2024-05-09T03:01:45.427Z,8.90
2024-05-09T03:06:55.383Z,6.10
2024-05-09T03:12:02.507Z,6.10
2024-05-09T03:17:12.119Z,7.40
2024-05-09T03:22:18.896Z,7.10
2024-05-09T03:27:25.652Z,7.60
2024-05-09T03:32:32.403Z,6.20
2024-05-09T03:37:39.397Z,10.40
2024-05-09T03:42:47.943Z,8.00
2024-05-09T03:47:54.802Z,10.70
2024-05-09T03:53:02.258Z,9.20
2024-05-09T03:58:09.234Z,8.60
2024-05-09T04:03:16.369Z,8.80
2024-05-09T04:08:23.350Z,9.10
2024-05-09T04:13:32.434Z,10.70
2024-05-09T04:18:39.613Z,9.40
2024-05-09T04:23:46.494Z,10.10
2024-05-09T04:28:53.206Z,9.20
2024-05-09T04:34:01.999Z,8.00
2024-05-09T04:39:08.718Z,9.40
2024-05-09T04:44:15.494Z,11.70
2024-05-09T04:49:23.379Z,9.70
2024-05-09T04:54:36.020Z,11.60
2024-05-09T04:59:43.814Z,11.20
2024-05-09T05:04:50.641Z,10.10
2024-05-09T05:09:57.420Z,11.90
2024-05-09T05:15:04.158Z,11.50
2024-05-09T05:20:15.247Z,11.90
2024-05-09T05:25:25.924Z,9.40
2024-05-09T05:30:34.784Z,9.20
2024-05-09T05:35:42.777Z,10.50
2024-05-09T05:40:49.695Z,9.40
2024-05-09T05:45:59.728Z,9.70
2024-05-09T05:51:07.720Z,10.50
2024-05-09T05:56:14.499Z,9.30
2024-05-09T06:01:21.151Z,10.00
2024-05-09T06:06:28.155Z,10.40
2024-05-09T06:11:35.348Z,10.00
2024-05-09T06:16:42.026Z,10.20
2024-05-09T06:21:48.614Z,10.40
2024-05-09T06:26:55.557Z,8.10
2024-05-09T06:32:05.463Z,9.10
2024-05-09T06:37:12.543Z,7.30
2024-05-09T06:42:19.222Z,7.70
2024-05-09T06:47:25.999Z,8.70
2024-05-09T06:52:33.237Z,7.40
2024-05-09T06:57:42.960Z,7.90
2024-05-09T07:02:50.204Z,6.30
2024-05-09T07:07:57.519Z,6.50
2024-05-09T07:13:04.449Z,5.90
2024-05-09T07:18:17.804Z,7.20
2024-05-09T07:23:25.730Z,6.60
2024-05-09T07:28:32.698Z,7.40
2024-05-09T07:33:39.377Z,5.30
2024-05-09T07:38:46.110Z,4.70
2024-05-09T07:43:52.707Z,6.00
2024-05-09T07:50:35.806Z,5.10
2024-05-09T07:54:26.097Z,5.30
2024-05-09T07:59:36.062Z,5.30
2024-05-09T08:04:44.383Z,5.10
2024-05-09T08:09:52.294Z,6.60
2024-05-09T08:14:59.460Z,4.50
2024-05-09T08:20:07.640Z,6.90
2024-05-09T08:25:15.507Z,6.40
2024-05-09T08:30:30.098Z,5.70
2024-05-09T08:35:43.192Z,7.40
2024-05-09T08:40:50.680Z,5.00
2024-05-09T08:45:59.862Z,6.60
2024-05-09T08:51:08.548Z,6.20
2024-05-09T08:56:15.768Z,4.60
2024-05-09T09:01:23.513Z,4.70
2024-05-09T09:06:35.731Z,5.80
2024-05-09T09:11:48.932Z,6.10
2024-05-09T09:16:56.488Z,4.70
2024-05-09T09:22:03.161Z,4.70
2024-05-09T09:27:09.876Z,4.70
2024-05-09T09:32:16.718Z,5.00
2024-05-09T09:37:27.891Z,6.10
2024-05-09T09:47:44.045Z,6.00
2024-05-09T09:52:51.373Z,4.70
2024-05-09T09:57:58.431Z,5.60
2024-05-09T10:03:05.306Z,4.60
2024-05-09T10:08:15.893Z,4.90
2024-05-09T10:13:33.598Z,4.40
2024-05-09T10:18:41.843Z,4.30
2024-05-09T10:23:59.884Z,5.60
2024-05-09T10:29:15.369Z,5.80
2024-05-09T10:34:24.088Z,5.80
2024-05-09T10:39:39.917Z,5.70
2024-05-09T10:44:50.464Z,5.50
2024-05-09T10:50:00.294Z,4.90
2024-05-09T10:55:08.086Z,6.20
2024-05-09T11:00:23.352Z,5.70
2024-05-09T11:05:39.020Z,4.60
2024-05-09T11:10:47.213Z,6.00
2024-05-09T11:15:54.700Z,6.10
2024-05-09T11:21:02.182Z,4.40
2024-05-09T11:26:10.814Z,4.90
2024-05-09T11:31:20.833Z,4.60
2024-05-09T11:36:27.900Z,5.50
2024-05-09T11:41:35.880Z,4.90
2024-05-09T11:46:43.942Z,5.40
2024-05-09T11:51:51.670Z,6.50
2024-05-09T11:57:02.960Z,7.00
2024-05-09T12:02:10.115Z,4.70
2024-05-09T12:07:18.649Z,5.20
2024-05-09T12:12:25.752Z,4.30
2024-05-09T12:17:32.549Z,5.20
2024-05-09T12:22:39.382Z,5.80
2024-05-09T12:27:46.193Z,6.10
2024-05-09T12:32:53.452Z,5.40
2024-05-09T12:38:00.637Z,4.60
2024-05-09T12:43:09.283Z,3.70
2024-05-09T12:48:17.187Z,5.80
2024-05-09T12:53:24.232Z,4.80
2024-05-09T12:58:30.987Z,4.00
2024-05-09T13:03:38.029Z,5.60
2024-05-09T13:08:45.084Z,4.60
2024-05-09T13:13:52.666Z,3.80
2024-05-09T13:18:59.495Z,4.10
2024-05-09T13:24:10.762Z,4.30
2024-05-09T13:29:17.424Z,4.80
2024-05-09T13:34:24.409Z,4.00
2024-05-09T13:39:31.037Z,4.10
2024-05-09T13:44:37.982Z,3.70
2024-05-09T13:49:44.761Z,5.30
2024-05-09T13:54:51.430Z,3.80
2024-05-09T13:59:58.177Z,4.90
2024-05-09T14:05:12.273Z,3.20
2024-05-09T14:10:26.232Z,6.30
2024-05-09T14:15:37.803Z,4.50
2024-05-09T14:20:44.662Z,5.60
2024-05-09T14:25:54.397Z,3.90
2024-05-09T14:31:04.523Z,3.60
2024-05-09T14:36:11.948Z,5.80
2024-05-09T14:41:18.746Z,3.90
2024-05-09T14:46:25.945Z,5.30
2024-05-09T14:51:36.470Z,3.80
2024-05-09T14:56:43.672Z,4.40
2024-05-09T15:01:50.368Z,6.10
2024-05-09T15:06:57.415Z,5.50
2024-05-09T15:12:04.398Z,5.80
2024-05-09T15:17:12.003Z,6.30
2024-05-09T15:22:19.586Z,5.30
2024-05-09T15:27:26.420Z,5.70
2024-05-09T15:32:33.214Z,6.40
2024-05-09T15:37:40.053Z,4.90
2024-05-09T15:42:46.707Z,3.50
2024-05-09T15:47:53.391Z,4.00
2024-05-09T15:53:00.177Z,3.60
2024-05-09T15:58:07.912Z,4.30
2024-05-09T16:03:15.563Z,4.20
2024-05-09T16:13:28.073Z,2.90
2024-05-09T16:18:34.816Z,3.40
2024-05-09T16:23:41.678Z,4.70
2024-05-09T16:28:49.088Z,4.90
2024-05-09T16:33:56.087Z,4.10
2024-05-09T16:39:03.042Z,3.10
2024-05-09T16:44:09.731Z,3.10
2024-05-09T16:49:16.435Z,2.30
2024-05-09T16:54:23.363Z,2.30
2024-05-09T16:59:30.314Z,2.80
2024-05-09T17:04:37.064Z,3.80
2024-05-09T17:09:44.265Z,3.30
2024-05-09T17:14:50.978Z,4.00
2024-05-09T17:19:57.566Z,4.10
2024-05-09T17:25:05.503Z,3.60
2024-05-09T17:30:17.936Z,3.70
2024-05-09T17:35:32.164Z,4.40
2024-05-09T17:40:39.559Z,4.90
2024-05-09T17:45:47.306Z,5.70
2024-05-09T17:50:53.898Z,4.50
2024-05-09T17:56:01.369Z,4.90
2024-05-09T18:01:08.315Z,7.00
2024-05-09T18:06:16.436Z,3.80
2024-05-09T18:11:23.739Z,5.20
2024-05-09T18:16:30.546Z,6.20
2024-05-09T18:21:37.552Z,4.30
2024-05-09T18:26:44.268Z,5.30
2024-05-09T18:31:50.896Z,4.40
2024-05-09T18:36:58.246Z,8.30
2024-05-09T18:42:05.711Z,6.70
2024-05-09T18:47:12.940Z,4.50
2024-05-09T18:52:20.732Z,4.40
2024-05-09T18:57:27.498Z,6.60
2024-05-09T19:02:34.739Z,4.60
2024-05-09T19:07:42.725Z,8.00
2024-05-09T19:12:50.477Z,5.00
2024-05-09T19:17:57.762Z,6.10
2024-05-09T19:23:05.429Z,8.80
2024-05-09T19:28:12.405Z,10.30
2024-05-09T19:33:19.245Z,6.70
2024-05-09T19:38:26.059Z,6.20
2024-05-09T19:43:35.890Z,6.30
2024-05-09T19:48:43.501Z,6.20
2024-05-09T19:53:56.259Z,7.70
2024-05-09T19:59:03.265Z,7.60
2024-05-09T20:04:10.008Z,5.70
2024-05-09T20:09:16.732Z,6.30
2024-05-09T20:14:23.467Z,6.30
2024-05-09T20:19:30.405Z,6.20
2024-05-09T20:24:37.284Z,6.20
2024-05-09T20:29:44.373Z,6.80
2024-05-09T20:34:51.959Z,6.20
2024-05-09T20:39:58.711Z,7.00
2024-05-09T20:45:06.069Z,8.90
2024-05-09T20:50:23.056Z,7.30
2024-05-09T20:55:35.495Z,6.30
2024-05-09T21:00:44.798Z,6.60
2024-05-09T21:05:53.340Z,8.00
2024-05-09T21:11:00.145Z,7.00
2024-05-09T21:16:08.194Z,6.70
2024-05-09T21:21:14.975Z,6.90
2024-05-09T21:26:23.666Z,6.60
2024-05-09T21:31:30.388Z,6.80
2024-05-09T21:36:37.244Z,13.80
2024-05-09T21:41:43.915Z,8.50
2024-05-09T21:46:50.538Z,11.50
2024-05-09T21:51:57.230Z,11.20
2024-05-09T21:57:06.339Z,8.70
2024-05-09T22:02:13.232Z,7.90
2024-05-09T22:07:20.086Z,7.60
2024-05-09T22:12:26.966Z,9.40
2024-05-09T22:17:34.002Z,7.90
2024-05-09T22:22:41.422Z,7.50
2024-05-09T22:27:49.248Z,7.30
2024-05-09T22:32:56.095Z,7.90
2024-05-09T22:38:03.281Z,7.90
2024-05-09T22:43:10.307Z,7.60
2024-05-09T22:48:17.380Z,7.80
2024-05-09T22:53:25.916Z,8.50
2024-05-09T22:58:32.963Z,9.30
2024-05-09T23:03:41.437Z,8.70
2024-05-09T23:08:48.337Z,8.90
2024-05-09T23:13:55.021Z,10.50
2024-05-09T23:19:01.917Z,11.40
2024-05-09T23:24:08.954Z,11.00
2024-05-09T23:29:16.158Z,12.40
2024-05-09T23:34:22.992Z,12.00
2024-05-09T23:39:29.937Z,12.80
2024-05-09T23:44:36.678Z,12.50
2024-05-09T23:49:43.492Z,11.20
2024-05-09T23:54:50.366Z,10.20
2024-05-09T23:59:59.987Z,10.60
